createdAt,value
2023-03-24T00:02:37.577Z,3.83
2023-03-24T00:07:41.085Z,3.88
2023-03-24T00:12:42.895Z,4.28
2023-03-24T00:17:46.872Z,4.20
2023-03-24T00:22:56.535Z,4.03
2023-03-24T00:27:58.233Z,4.40
2023-03-24T00:33:02.084Z,3.72
2023-03-24T00:38:03.919Z,4.15
2023-03-24T00:43:05.719Z,4.45
2023-03-24T00:48:07.511Z,4.00
2023-03-24T00:53:10.087Z,4.10
2023-03-24T00:58:18.027Z,4.00
2023-03-24T01:03:27.234Z,4.35
2023-03-24T01:08:29.464Z,4.20
2023-03-24T01:13:32.173Z,4.18
2023-03-24T01:18:34.945Z,4.10
2023-03-24T01:23:37.579Z,4.03
2023-03-24T01:28:43.689Z,4.22
2023-03-24T01:33:45.783Z,4.20
2023-03-24T01:38:47.442Z,4.25
2023-03-24T01:43:49.183Z,4.13
2023-03-24T01:48:55.407Z,3.70
2023-03-24T01:54:09.532Z,3.80
2023-03-24T01:59:18.236Z,3.60
2023-03-24T02:04:48.468Z,3.80
2023-03-24T02:09:50.629Z,3.80
2023-03-24T02:14:53.448Z,3.97
2023-03-24T02:25:29.708Z,4.20
2023-03-24T02:30:40.278Z,4.45
2023-03-24T02:36:23.493Z,4.40
2023-03-24T02:41:40.793Z,4.38
2023-03-24T02:46:49.290Z,4.43
2023-03-24T02:52:00.545Z,4.32
2023-03-24T02:57:12.946Z,4.30
2023-03-24T03:02:43.524Z,4.50
2023-03-24T03:07:47.755Z,4.50
2023-03-24T03:12:54.178Z,4.20
2023-03-24T03:18:09.124Z,4.80
2023-03-24T03:23:14.736Z,4.55
2023-03-24T03:28:21.995Z,4.45
2023-03-24T03:33:32.101Z,4.63
2023-03-24T03:38:49.319Z,4.30
2023-03-24T03:43:52.365Z,4.05
2023-03-24T03:54:02.443Z,4.18
2023-03-24T03:59:07.023Z,4.30
2023-03-24T04:04:26.248Z,4.18
2023-03-24T04:10:10.225Z,4.05
2023-03-24T04:15:35.659Z,3.75
2023-03-24T04:21:07.592Z,3.95
2023-03-24T04:26:28.086Z,3.67
2023-03-24T04:32:02.273Z,4.05
2023-03-24T04:37:12.409Z,4.00
2023-03-24T04:42:55.062Z,3.83
2023-03-24T04:48:05.273Z,4.07
2023-03-24T04:53:30.843Z,3.63
2023-03-24T04:58:33.021Z,3.78
2023-03-24T05:03:38.074Z,4.20
2023-03-24T05:08:41.286Z,3.92
2023-03-24T05:18:46.551Z,4.07
2023-03-24T05:23:48.723Z,4.00
2023-03-24T05:28:50.785Z,4.80
2023-03-24T05:33:53.150Z,5.07
2023-03-24T05:38:56.882Z,5.00
2023-03-24T05:44:05.781Z,6.25
2023-03-24T05:49:07.544Z,6.10
2023-03-24T05:54:14.327Z,6.00
2023-03-24T05:59:22.703Z,5.43
2023-03-24T06:04:24.656Z,5.22
2023-03-24T06:09:40.848Z,5.20
2023-03-24T06:14:45.525Z,4.43
2023-03-24T06:19:50.105Z,4.60
2023-03-24T06:25:05.658Z,5.50
2023-03-24T06:30:08.652Z,6.05
2023-03-24T06:35:10.753Z,5.47
2023-03-24T06:40:23.816Z,5.68
2023-03-24T06:45:31.340Z,6.13
2023-03-24T06:50:35.444Z,5.95
2023-03-24T06:55:42.535Z,5.95
2023-03-24T07:00:47.211Z,6.60
2023-03-24T07:06:09.706Z,5.95
2023-03-24T07:11:12.349Z,5.53
2023-03-24T07:16:21.869Z,5.35
2023-03-24T07:21:31.367Z,4.93
2023-03-24T07:26:33.569Z,3.30
2023-03-24T07:31:43.439Z,3.50
2023-03-24T07:36:48.056Z,2.97
2023-03-24T07:41:51.936Z,2.80
2023-03-24T07:47:03.922Z,2.97
2023-03-24T07:52:06.581Z,3.22
2023-03-24T07:57:12.692Z,3.38
2023-03-24T08:02:19.754Z,4.10
2023-03-24T08:07:35.176Z,3.90
2023-03-24T08:12:37.172Z,3.83
2023-03-24T08:17:39.528Z,3.72
2023-03-24T08:22:43.361Z,3.40
2023-03-24T08:27:47.072Z,3.63
2023-03-24T08:32:54.956Z,3.97
2023-03-24T08:37:59.308Z,4.15
2023-03-24T08:43:03.788Z,3.90
2023-03-24T08:48:07.750Z,4.13
2023-03-24T08:53:11.660Z,4.13
2023-03-24T08:58:16.284Z,4.15
2023-03-24T09:03:22.124Z,4.20
2023-03-24T09:08:25.002Z,4.32
2023-03-24T09:13:26.705Z,4.75
2023-03-24T09:18:29.305Z,4.38
2023-03-24T09:23:31.661Z,4.55
2023-03-24T09:28:34.218Z,4.80
2023-03-24T09:33:36.290Z,4.18
2023-03-24T09:38:38.110Z,4.70
2023-03-24T09:43:44.725Z,4.77
2023-03-24T09:48:53.256Z,4.50
2023-03-24T09:53:59.213Z,3.83
2023-03-24T09:59:15.359Z,3.78
2023-03-24T10:04:20.977Z,4.30
2023-03-24T10:09:30.476Z,4.40
2023-03-24T10:14:45.083Z,4.57
2023-03-24T10:20:00.685Z,3.70
2023-03-24T10:25:37.489Z,3.40
2023-03-24T10:30:44.099Z,3.30
2023-03-24T10:36:09.865Z,3.10
2023-03-24T10:41:26.091Z,3.47
2023-03-24T10:46:31.380Z,2.58
2023-03-24T10:51:36.657Z,2.38
2023-03-24T10:56:41.464Z,2.30
2023-03-24T11:01:43.797Z,2.97
2023-03-24T11:07:02.710Z,2.67
2023-03-24T11:12:04.772Z,2.80
2023-03-24T11:17:15.492Z,2.93
2023-03-24T11:22:17.419Z,2.80
2023-03-24T11:27:19.983Z,2.80
2023-03-24T11:32:25.213Z,2.78
2023-03-24T11:37:36.362Z,2.80
2023-03-24T11:42:44.773Z,3.00
2023-03-24T11:47:48.201Z,2.92
2023-03-24T11:52:58.132Z,2.47
2023-03-24T11:58:29.015Z,2.38
2023-03-24T12:03:39.826Z,1.92
2023-03-24T12:09:10.781Z,1.83
2023-03-24T12:14:23.317Z,1.75
2023-03-24T12:19:47.381Z,1.40
2023-03-24T12:25:16.708Z,1.42
2023-03-24T12:30:21.849Z,1.50
2023-03-24T12:35:34.060Z,1.73
2023-03-24T12:40:49.320Z,2.05
2023-03-24T12:45:54.234Z,2.10
2023-03-24T12:51:09.764Z,2.20
2023-03-24T12:56:31.231Z,2.40
2023-03-24T13:01:38.911Z,2.40
2023-03-24T13:06:53.198Z,2.10
2023-03-24T13:17:31.791Z,2.08
2023-03-24T13:22:36.488Z,1.85
2023-03-24T13:27:41.250Z,1.92
2023-03-24T13:32:49.134Z,1.40
2023-03-24T13:37:57.356Z,1.67
2023-03-24T13:43:13.485Z,1.55
2023-03-24T13:48:23.517Z,1.10
2023-03-24T13:53:45.764Z,1.25
2023-03-24T13:58:51.027Z,1.05
2023-03-24T14:04:20.723Z,1.20
2023-03-24T14:09:32.942Z,1.30
2023-03-24T14:14:55.814Z,1.00
2023-03-24T14:20:05.106Z,0.95
2023-03-24T14:25:23.587Z,0.90
2023-03-24T14:30:37.956Z,1.10
2023-03-24T14:35:45.705Z,1.08
2023-03-24T14:40:56.632Z,1.77
2023-03-24T14:46:25.637Z,1.40
2023-03-24T14:51:58.844Z,1.10
2023-03-24T14:57:01.922Z,1.17
2023-03-24T15:02:28.189Z,1.20
2023-03-24T15:07:30.160Z,0.95
2023-03-24T15:12:32.611Z,2.05
2023-03-24T15:17:34.458Z,1.85
2023-03-24T15:22:42.865Z,1.03
2023-03-24T15:27:53.898Z,0.93
2023-03-24T15:32:55.790Z,0.80
2023-03-24T15:37:57.583Z,0.90
2023-03-24T15:43:02.272Z,0.80
2023-03-24T15:48:12.779Z,0.70
2023-03-24T15:53:14.456Z,0.93
2023-03-24T15:58:28.440Z,0.98
2023-03-24T16:03:32.273Z,0.90
2023-03-24T16:08:38.848Z,0.95
2023-03-24T16:13:45.576Z,0.90
2023-03-24T16:18:48.841Z,1.08
2023-03-24T16:23:52.646Z,1.00
2023-03-24T16:28:56.897Z,0.90
2023-03-24T16:33:59.300Z,1.08
2023-03-24T16:39:01.683Z,1.30
2023-03-24T16:44:03.784Z,1.00
2023-03-24T16:49:07.028Z,1.10
2023-03-24T16:54:09.188Z,0.80
2023-03-24T16:59:12.504Z,1.05
2023-03-24T17:04:16.590Z,1.20
2023-03-24T17:09:18.439Z,1.02
2023-03-24T17:14:20.425Z,1.20
2023-03-24T17:19:23.717Z,1.20
2023-03-24T17:24:26.511Z,1.35
2023-03-24T17:29:28.144Z,1.50
2023-03-24T17:34:29.919Z,1.10
2023-03-24T17:39:31.705Z,1.10
2023-03-24T17:44:33.821Z,1.10
2023-03-24T17:49:35.591Z,1.52
2023-03-24T17:54:37.310Z,1.35
2023-03-24T17:59:39.195Z,1.40
2023-03-24T18:04:41.004Z,1.25
2023-03-24T18:09:42.704Z,1.35
2023-03-24T18:14:45.504Z,1.70
2023-03-24T18:24:48.929Z,2.17
2023-03-24T18:29:51.047Z,1.75
2023-03-24T18:34:53.156Z,2.00
2023-03-24T18:39:54.915Z,1.40
2023-03-24T18:44:56.657Z,2.15
2023-03-24T18:49:58.357Z,1.40
2023-03-24T18:55:02.422Z,1.37
2023-03-24T19:00:09.290Z,1.35
2023-03-24T19:05:12.739Z,1.20
2023-03-24T19:10:14.616Z,1.50
2023-03-24T19:15:18.334Z,1.67
2023-03-24T19:20:19.990Z,1.80
2023-03-24T19:25:22.832Z,1.50
2023-03-24T19:35:26.177Z,1.50
2023-03-24T19:40:28.620Z,1.80
2023-03-24T19:45:30.604Z,2.60
2023-03-24T19:50:32.650Z,2.05
2023-03-24T19:55:35.996Z,1.83
2023-03-24T20:00:37.740Z,1.85
2023-03-24T20:05:39.469Z,2.20
2023-03-24T20:10:41.340Z,2.03
2023-03-24T20:15:46.120Z,2.05
2023-03-24T20:20:48.274Z,1.73
2023-03-24T20:25:50.481Z,1.52
2023-03-24T20:30:58.332Z,1.70
2023-03-24T20:36:00.171Z,1.58
2023-03-24T20:41:05.311Z,1.80
2023-03-24T20:46:09.227Z,1.58
2023-03-24T20:51:11.675Z,1.40
2023-03-24T20:56:15.392Z,1.55
2023-03-24T21:01:23.782Z,1.70
2023-03-24T21:06:25.677Z,1.67
2023-03-24T21:11:30.684Z,1.48
2023-03-24T21:16:33.977Z,1.50
2023-03-24T21:21:36.485Z,1.60
2023-03-24T21:26:38.179Z,1.70
2023-03-24T21:31:41.713Z,1.60
2023-03-24T21:36:43.628Z,1.50
2023-03-24T21:41:45.724Z,1.60
2023-03-24T21:46:48.062Z,1.77
2023-03-24T21:51:54.671Z,1.67
2023-03-24T21:56:56.510Z,1.52
2023-03-24T22:01:58.591Z,1.70
2023-03-24T22:07:06.349Z,1.70
2023-03-24T22:12:08.070Z,1.73
2023-03-24T22:17:09.791Z,1.50
2023-03-24T22:22:11.536Z,1.60
2023-03-24T22:27:13.195Z,1.60
2023-03-24T22:32:14.918Z,1.42
2023-03-24T22:37:17.194Z,1.58
2023-03-24T22:42:18.879Z,1.65
2023-03-24T22:47:20.779Z,1.80
2023-03-24T22:52:22.653Z,1.70
2023-03-24T22:57:24.318Z,1.90
2023-03-24T23:02:27.116Z,1.70
2023-03-24T23:07:29.567Z,1.90
2023-03-24T23:12:31.437Z,1.52
2023-03-24T23:17:34.647Z,1.55
2023-03-24T23:22:38.262Z,1.77
2023-03-24T23:27:40.724Z,1.60
2023-03-24T23:32:44.010Z,1.80
2023-03-24T23:37:46.453Z,1.70
2023-03-24T23:42:49.233Z,1.90
2023-03-24T23:47:52.228Z,1.88
2023-03-24T23:52:54.150Z,1.80
2023-03-24T23:57:55.890Z,1.90
